createdAt,value
2019-03-16T00:00:57.350Z,7.45
2019-03-16T00:01:57.685Z,7.50
2019-03-16T00:02:57.401Z,7.45
2019-03-16T00:03:57.254Z,7.42
2019-03-16T00:04:57.285Z,7.51
2019-03-16T00:05:57.216Z,7.52
2019-03-16T00:06:57.291Z,7.39
2019-03-16T00:07:57.221Z,7.42
2019-03-16T00:08:57.350Z,7.39
2019-03-16T00:09:57.177Z,7.39
2019-03-16T00:10:57.218Z,7.41
2019-03-16T00:11:57.293Z,7.39
2019-03-16T00:12:57.256Z,7.41
2019-03-16T00:13:57.130Z,7.37
2019-03-16T00:14:57.249Z,7.39
2019-03-16T00:15:57.108Z,7.44
2019-03-16T00:16:57.158Z,7.47
2019-03-16T00:17:57.122Z,7.51
2019-03-16T00:18:57.179Z,7.34
2019-03-16T00:19:57.073Z,7.48
2019-03-16T00:21:58.198Z,7.41
2019-03-16T00:22:57.120Z,7.36
2019-03-16T00:23:57.010Z,7.45
2019-03-16T00:24:57.119Z,7.48
2019-03-16T00:25:57.000Z,7.47
2019-03-16T00:26:57.026Z,7.42
2019-03-16T00:27:57.178Z,7.37
2019-03-16T00:28:57.066Z,7.37
2019-03-16T00:29:57.010Z,7.42
2019-03-16T00:30:57.066Z,7.37
2019-03-16T00:31:56.934Z,7.37
2019-03-16T00:32:56.995Z,7.42
2019-03-16T00:33:57.119Z,7.33
2019-03-16T00:34:56.976Z,7.34
2019-03-16T00:35:56.883Z,7.39
2019-03-16T00:36:56.991Z,7.41
2019-03-16T00:37:56.855Z,7.45
2019-03-16T00:38:56.935Z,7.42
2019-03-16T00:39:56.900Z,7.41
2019-03-16T00:40:56.912Z,7.44
2019-03-16T00:41:56.813Z,7.37
2019-03-16T00:42:56.928Z,7.42
2019-03-16T00:43:56.793Z,7.37
2019-03-16T00:44:56.869Z,7.37
2019-03-16T00:45:56.778Z,7.42
2019-03-16T00:46:56.868Z,7.36
2019-03-16T00:47:56.747Z,7.39
2019-03-16T00:48:56.799Z,7.39
2019-03-16T00:49:56.723Z,7.37
2019-03-16T00:50:56.836Z,7.41
2019-03-16T00:51:56.709Z,7.39
2019-03-16T00:52:56.793Z,7.37
2019-03-16T00:53:56.703Z,7.34
2019-03-16T00:54:56.704Z,7.30
2019-03-16T00:55:56.655Z,7.33
2019-03-16T00:56:56.817Z,7.32
2019-03-16T00:57:56.634Z,7.32
2019-03-16T00:58:56.759Z,7.33
2019-03-16T00:59:56.612Z,7.29
2019-03-16T01:00:56.639Z,7.36
2019-03-16T01:01:56.589Z,7.26
2019-03-16T01:02:56.650Z,7.32
2019-03-16T01:03:56.609Z,7.26
2019-03-16T01:04:56.699Z,7.23
2019-03-16T01:05:56.546Z,7.24
2019-03-16T01:06:56.582Z,7.23
2019-03-16T01:07:56.530Z,7.24
2019-03-16T01:08:56.594Z,7.21
2019-03-16T01:09:56.526Z,7.16
2019-03-16T01:10:56.610Z,7.23
2019-03-16T01:11:56.478Z,7.29
2019-03-16T01:12:56.524Z,7.23
2019-03-16T01:13:56.452Z,7.21
2019-03-16T01:14:56.559Z,7.29
2019-03-16T01:15:56.437Z,7.21
2019-03-16T01:16:56.446Z,7.24
2019-03-16T01:17:56.439Z,7.18
2019-03-16T01:18:56.474Z,7.23
2019-03-16T01:19:56.406Z,7.23
2019-03-16T01:20:56.469Z,7.27
2019-03-16T01:21:56.427Z,7.23
2019-03-16T01:22:56.386Z,7.24
2019-03-16T01:23:56.351Z,7.16
2019-03-16T01:24:56.428Z,7.16
2019-03-16T01:25:56.345Z,7.26
2019-03-16T01:26:56.419Z,7.23
2019-03-16T01:27:56.313Z,7.19
2019-03-16T01:28:56.341Z,7.21
2019-03-16T01:29:56.275Z,7.16
2019-03-16T01:30:56.375Z,7.27
2019-03-16T01:31:56.269Z,7.26
2019-03-16T01:32:56.361Z,7.12
2019-03-16T01:33:56.235Z,7.21
2019-03-16T01:34:56.263Z,7.23
2019-03-16T01:35:56.285Z,7.24
2019-03-16T01:36:56.283Z,7.24
2019-03-16T01:37:56.197Z,7.21
2019-03-16T01:38:56.296Z,7.19
2019-03-16T01:39:56.195Z,7.26
2019-03-16T01:40:56.217Z,7.27
2019-03-16T01:41:56.172Z,7.33
2019-03-16T01:42:56.227Z,7.27
2019-03-16T01:43:56.127Z,7.34
2019-03-16T01:44:56.265Z,7.36
2019-03-16T01:45:56.143Z,7.36
2019-03-16T01:46:56.203Z,7.36
2019-03-16T01:47:56.093Z,7.39
2019-03-16T01:48:56.161Z,7.37
2019-03-16T01:49:56.057Z,7.41
2019-03-16T01:50:56.104Z,7.39
2019-03-16T01:51:56.077Z,7.45
2019-03-16T01:52:56.082Z,7.37
2019-03-16T01:53:56.009Z,7.41
2019-03-16T01:54:56.103Z,7.44
2019-03-16T01:55:56.004Z,7.44
2019-03-16T01:56:56.040Z,7.41
2019-03-16T01:57:55.961Z,7.51
2019-03-16T01:58:56.027Z,7.48
2019-03-16T01:59:55.949Z,7.50
2019-03-16T02:00:56.035Z,7.48
2019-03-16T02:01:55.967Z,7.50
2019-03-16T02:02:56.086Z,7.54
2019-03-16T02:03:55.900Z,7.45
2019-03-16T02:04:55.965Z,7.48
2019-03-16T02:05:55.884Z,7.57
2019-03-16T02:06:56.010Z,7.48
2019-03-16T02:07:55.856Z,7.52
2019-03-16T02:08:55.987Z,7.58
2019-03-16T02:09:55.841Z,7.52
2019-03-16T02:10:55.907Z,7.63
2019-03-16T02:11:55.840Z,7.55
2019-03-16T02:12:55.914Z,7.57
2019-03-16T02:13:55.792Z,7.55
2019-03-16T02:14:55.826Z,7.52
2019-03-16T02:15:55.773Z,7.58
2019-03-16T02:16:55.871Z,7.58
2019-03-16T02:17:55.749Z,7.58
2019-03-16T02:18:55.863Z,7.58
2019-03-16T02:19:55.719Z,7.67
2019-03-16T02:20:55.771Z,7.69
2019-03-16T02:21:55.727Z,7.63
2019-03-16T02:22:55.798Z,7.58
2019-03-16T02:23:55.678Z,7.57
2019-03-16T02:24:55.812Z,7.70
2019-03-16T02:25:55.649Z,7.67
2019-03-16T02:26:55.749Z,7.57
2019-03-16T02:27:55.660Z,7.67
2019-03-16T02:28:55.720Z,7.66
2019-03-16T02:29:55.704Z,7.55
2019-03-16T02:30:55.667Z,7.55
2019-03-16T02:31:55.580Z,7.58
2019-03-16T02:33:11.588Z,7.54
2019-03-16T02:33:56.559Z,7.63
2019-03-16T02:34:55.664Z,7.54
2019-03-16T02:35:55.536Z,7.52
2019-03-16T02:36:55.588Z,7.57
2019-03-16T02:37:55.541Z,7.62
2019-03-16T02:38:55.586Z,7.57
2019-03-16T02:39:55.489Z,7.62
2019-03-16T02:40:55.601Z,7.57
2019-03-16T02:41:55.467Z,7.58
2019-03-16T02:42:55.539Z,7.71
2019-03-16T02:43:55.456Z,7.55
2019-03-16T02:44:55.525Z,7.71
2019-03-16T02:45:55.444Z,7.76
2019-03-16T02:46:55.544Z,7.77
2019-03-16T02:47:55.494Z,7.70
2019-03-16T02:48:55.456Z,7.81
2019-03-16T02:49:55.378Z,7.77
2019-03-16T02:50:55.467Z,7.67
2019-03-16T02:51:55.392Z,7.67
2019-03-16T02:52:55.406Z,7.71
2019-03-16T02:53:55.409Z,7.74
2019-03-16T02:54:55.450Z,7.73
2019-03-16T02:55:55.320Z,7.76
2019-03-16T02:56:55.422Z,7.81
2019-03-16T02:57:55.306Z,7.76
2019-03-16T02:58:55.366Z,7.76
2019-03-16T02:59:55.270Z,7.79
2019-03-16T03:00:55.338Z,7.84
2019-03-16T03:01:55.251Z,7.84
2019-03-16T03:02:55.345Z,7.77
2019-03-16T03:03:55.278Z,7.81
2019-03-16T03:04:55.262Z,7.79
2019-03-16T03:05:55.196Z,7.74
2019-03-16T03:06:55.289Z,7.73
2019-03-16T03:07:55.188Z,7.77
2019-03-16T03:08:55.324Z,7.81
2019-03-16T03:09:55.169Z,7.77
2019-03-16T03:10:55.201Z,7.77
2019-03-16T03:11:55.189Z,7.77
2019-03-16T03:13:56.264Z,7.74
2019-03-16T03:14:55.218Z,7.73
2019-03-16T03:15:55.088Z,7.69
2019-03-16T03:16:55.133Z,7.71
2019-03-16T03:17:55.064Z,7.71
2019-03-16T03:18:55.180Z,7.70
2019-03-16T03:19:55.085Z,7.71
2019-03-16T03:20:55.227Z,7.76
2019-03-16T03:21:55.064Z,7.76
2019-03-16T03:22:55.072Z,7.77
2019-03-16T03:23:55.002Z,7.76
2019-03-16T03:24:55.186Z,7.76
2019-03-16T03:25:54.983Z,7.76
2019-03-16T03:26:55.006Z,7.76
2019-03-16T03:27:54.964Z,7.71
2019-03-16T03:28:55.019Z,7.76
2019-03-16T03:29:57.328Z,7.60
2019-03-16T03:30:55.057Z,7.67
2019-03-16T03:31:54.911Z,7.74
2019-03-16T03:32:55.117Z,7.71
2019-03-16T03:34:01.771Z,7.71
2019-03-16T03:34:56.007Z,7.62
2019-03-16T03:35:54.871Z,7.76
2019-03-16T03:36:54.970Z,7.77
2019-03-16T03:37:54.854Z,7.69
2019-03-16T03:38:54.874Z,7.79
2019-03-16T03:39:54.819Z,7.71
2019-03-16T03:40:54.923Z,7.73
2019-03-16T03:41:54.833Z,7.77
2019-03-16T03:42:54.940Z,7.73
2019-03-16T03:43:54.799Z,7.69
2019-03-16T03:44:54.856Z,7.69
2019-03-16T03:45:54.780Z,7.76
2019-03-16T03:46:54.825Z,7.71
2019-03-16T03:47:54.738Z,7.69
2019-03-16T03:48:54.863Z,7.71
2019-03-16T03:49:54.716Z,7.58
2019-03-16T03:50:54.782Z,7.67
2019-03-16T03:51:54.748Z,7.76
2019-03-16T03:52:54.773Z,7.73
2019-03-16T03:53:54.681Z,7.74
2019-03-16T03:54:54.677Z,7.74
2019-03-16T03:55:54.673Z,7.73
2019-03-16T03:56:54.692Z,7.74
2019-03-16T03:57:54.619Z,7.67
2019-03-16T03:58:54.722Z,7.71
2019-03-16T03:59:54.607Z,7.62
2019-03-16T04:00:54.666Z,7.73
2019-03-16T04:01:54.576Z,7.74
2019-03-16T04:02:54.642Z,7.74
2019-03-16T04:03:54.562Z,7.79
2019-03-16T04:04:54.647Z,7.69
2019-03-16T04:05:54.574Z,7.77
2019-03-16T04:06:54.556Z,7.73
2019-03-16T04:07:54.548Z,7.84
2019-03-16T04:08:54.569Z,7.76
2019-03-16T04:09:54.504Z,7.86
2019-03-16T04:10:54.646Z,7.79
2019-03-16T04:11:54.522Z,7.77
2019-03-16T04:12:54.504Z,7.76
2019-03-16T04:13:54.449Z,7.76
2019-03-16T04:14:54.560Z,7.73
2019-03-16T04:15:54.440Z,7.69
2019-03-16T04:16:54.574Z,7.74
2019-03-16T04:17:54.402Z,7.69
2019-03-16T04:18:54.437Z,7.73
2019-03-16T04:19:54.388Z,7.63
2019-03-16T04:20:54.467Z,7.62
2019-03-16T04:21:54.411Z,7.58
2019-03-16T04:22:54.463Z,7.57
2019-03-16T04:23:54.344Z,7.58
2019-03-16T04:24:54.375Z,7.51
2019-03-16T04:25:54.311Z,7.52
2019-03-16T04:26:54.393Z,7.51
2019-03-16T04:27:54.325Z,7.52
2019-03-16T04:28:54.314Z,7.54
2019-03-16T04:29:54.291Z,7.47
2019-03-16T04:30:54.316Z,7.50
2019-03-16T04:31:54.266Z,7.50
2019-03-16T04:32:54.367Z,7.45
2019-03-16T04:33:54.225Z,7.39
2019-03-16T04:34:54.247Z,7.41
2019-03-16T04:35:54.194Z,7.47
2019-03-16T04:36:54.253Z,7.39
2019-03-16T04:37:54.203Z,7.44
2019-03-16T04:38:54.271Z,7.41
2019-03-16T04:39:54.156Z,7.39
2019-03-16T04:40:54.199Z,7.41
2019-03-16T04:41:54.139Z,7.48
2019-03-16T04:42:54.234Z,7.42
2019-03-16T04:43:54.102Z,7.44
2019-03-16T04:44:54.234Z,7.36
2019-03-16T04:45:54.085Z,7.33
2019-03-16T04:46:54.135Z,7.33
2019-03-16T04:47:54.103Z,7.33
2019-03-16T04:48:54.131Z,7.26
2019-03-16T04:49:54.040Z,7.23
2019-03-16T04:50:54.185Z,7.18
2019-03-16T04:51:54.075Z,7.18
2019-03-16T04:52:54.101Z,7.05
2019-03-16T04:53:54.028Z,7.07
2019-03-16T04:54:54.066Z,7.12
2019-03-16T04:55:53.981Z,7.15
2019-03-16T04:56:54.079Z,7.09
2019-03-16T04:57:53.979Z,7.12
2019-03-16T04:58:54.025Z,7.14
2019-03-16T04:59:53.939Z,7.04
2019-03-16T05:00:54.011Z,7.05
2019-03-16T05:01:53.925Z,6.97
2019-03-16T05:02:53.925Z,6.99
2019-03-16T05:03:53.903Z,7.07
2019-03-16T05:04:53.931Z,6.99
2019-03-16T05:05:53.847Z,6.93
2019-03-16T05:06:53.959Z,6.93
2019-03-16T05:07:53.831Z,6.91
2019-03-16T05:08:53.894Z,6.91
2019-03-16T05:09:53.807Z,6.87
2019-03-16T05:10:53.886Z,6.78
2019-03-16T05:11:53.788Z,6.81
2019-03-16T05:12:53.893Z,6.79
2019-03-16T05:13:53.790Z,6.82
2019-03-16T05:14:53.836Z,6.75
2019-03-16T05:15:53.739Z,6.75
2019-03-16T05:16:53.820Z,6.71
2019-03-16T05:17:53.732Z,6.69
2019-03-16T05:18:53.855Z,6.78
2019-03-16T05:19:53.722Z,6.73
2019-03-16T05:20:53.741Z,6.73
2019-03-16T05:21:53.693Z,6.63
2019-03-16T05:22:53.759Z,6.65
2019-03-16T05:23:53.812Z,6.61
2019-03-16T05:24:53.815Z,6.58
2019-03-16T05:25:53.669Z,6.64
2019-03-16T05:26:53.700Z,6.63
2019-03-16T05:27:53.623Z,6.60
2019-03-16T05:28:53.696Z,6.65
2019-03-16T05:29:53.624Z,6.63
2019-03-16T05:30:53.624Z,6.60
2019-03-16T05:31:53.594Z,6.68
2019-03-16T05:32:53.621Z,6.63
2019-03-16T05:33:53.548Z,6.57
2019-03-16T05:34:56.755Z,6.61
2019-03-16T05:35:53.531Z,6.64
2019-03-16T05:36:56.056Z,6.60
2019-03-16T05:37:53.504Z,6.54
2019-03-16T05:38:53.574Z,6.58
2019-03-16T05:39:53.557Z,6.65
2019-03-16T05:40:53.582Z,6.65
2019-03-16T05:41:53.464Z,6.57
2019-03-16T05:42:53.488Z,6.64
2019-03-16T05:43:53.428Z,6.63
2019-03-16T05:44:53.528Z,6.60
2019-03-16T05:45:53.421Z,6.61
2019-03-16T05:46:53.524Z,6.63
2019-03-16T05:47:53.394Z,6.58
2019-03-16T05:48:53.421Z,6.64
2019-03-16T05:49:53.476Z,6.63
2019-03-16T05:50:53.448Z,6.60
2019-03-16T05:51:53.348Z,6.61
2019-03-16T05:52:53.452Z,6.57
2019-03-16T05:53:53.332Z,6.68
2019-03-16T05:54:53.464Z,6.71
2019-03-16T05:55:53.345Z,6.60
2019-03-16T05:56:53.375Z,6.60
2019-03-16T05:57:53.285Z,6.69
2019-03-16T05:58:53.388Z,6.60
2019-03-16T05:59:53.253Z,6.63
2019-03-16T06:00:53.332Z,6.68
2019-03-16T06:01:53.242Z,6.69
2019-03-16T06:02:53.325Z,6.64
2019-03-16T06:03:53.229Z,6.61
2019-03-16T06:04:53.225Z,6.69
2019-03-16T06:05:53.226Z,6.61
2019-03-16T06:06:53.242Z,6.64
2019-03-16T06:07:53.171Z,6.71
2019-03-16T06:08:53.258Z,6.68
2019-03-16T06:09:53.145Z,6.69
2019-03-16T06:10:53.205Z,6.72
2019-03-16T06:11:53.132Z,6.68
2019-03-16T06:12:53.181Z,6.72
2019-03-16T06:13:53.101Z,6.69
2019-03-16T06:14:53.192Z,6.72
2019-03-16T06:15:53.099Z,6.69
2019-03-16T06:16:53.142Z,6.75
2019-03-16T06:17:53.059Z,6.75
2019-03-16T06:18:53.129Z,6.71
2019-03-16T06:19:53.032Z,6.75
2019-03-16T06:20:53.152Z,6.76
2019-03-16T06:21:53.049Z,6.75
2019-03-16T06:22:53.052Z,6.69
2019-03-16T06:23:52.993Z,6.71
2019-03-16T06:24:53.068Z,6.82
2019-03-16T06:25:52.986Z,6.75
2019-03-16T06:26:53.120Z,6.75
2019-03-16T06:27:52.955Z,6.72
2019-03-16T06:28:52.986Z,6.82
2019-03-16T06:29:52.930Z,6.76
2019-03-16T06:30:53.007Z,6.79
2019-03-16T06:31:52.946Z,6.82
2019-03-16T06:32:53.014Z,6.75
2019-03-16T06:33:52.885Z,6.76
2019-03-16T06:34:52.926Z,6.79
2019-03-16T06:35:52.860Z,6.81
2019-03-16T06:36:52.981Z,6.82
2019-03-16T06:37:52.839Z,6.82
2019-03-16T06:38:52.954Z,6.79
2019-03-16T06:39:52.818Z,6.82
2019-03-16T06:40:52.863Z,6.90
2019-03-16T06:41:52.827Z,6.82
2019-03-16T06:42:52.884Z,6.82
2019-03-16T06:43:52.773Z,6.82
2019-03-16T06:44:52.795Z,6.78
2019-03-16T06:45:52.841Z,6.78
2019-03-16T06:46:52.846Z,6.87
2019-03-16T06:47:54.730Z,6.79
2019-03-16T06:48:52.826Z,6.79
2019-03-16T06:49:52.726Z,6.93
2019-03-16T06:50:52.736Z,6.83
2019-03-16T06:51:52.694Z,6.91
2019-03-16T06:52:52.745Z,6.96
2019-03-16T06:53:52.695Z,6.93
2019-03-16T06:54:52.761Z,6.91
2019-03-16T06:55:52.652Z,6.82
2019-03-16T06:56:52.670Z,6.89
2019-03-16T06:57:52.633Z,6.81
2019-03-16T06:58:52.683Z,6.87
2019-03-16T06:59:52.590Z,6.93
2019-03-16T07:00:52.705Z,6.90
2019-03-16T07:01:52.602Z,6.89
2019-03-16T07:02:52.642Z,6.94
2019-03-16T07:03:52.545Z,6.93
2019-03-16T07:04:52.645Z,6.96
2019-03-16T07:05:52.522Z,6.96
2019-03-16T07:06:52.649Z,6.90
2019-03-16T07:07:52.542Z,6.93
2019-03-16T07:08:52.560Z,6.93
2019-03-16T07:09:52.497Z,6.93
2019-03-16T07:10:52.576Z,6.90
2019-03-16T07:11:52.452Z,6.91
2019-03-16T07:12:52.502Z,6.93
2019-03-16T07:13:52.466Z,6.89
2019-03-16T07:14:52.486Z,6.91
2019-03-16T07:15:52.429Z,6.90
2019-03-16T07:17:02.169Z,6.90
2019-03-16T07:17:53.387Z,6.82
2019-03-16T07:18:58.718Z,6.89
2019-03-16T07:19:53.364Z,6.90
2019-03-16T07:20:52.431Z,6.87
2019-03-16T07:21:52.346Z,6.91
2019-03-16T07:22:52.444Z,6.93
2019-03-16T07:23:52.354Z,6.90
2019-03-16T07:24:52.367Z,6.89
2019-03-16T07:25:52.307Z,6.97
2019-03-16T07:26:52.366Z,6.99
2019-03-16T07:27:52.280Z,6.94
2019-03-16T07:28:52.463Z,6.97
2019-03-16T07:29:52.263Z,6.99
2019-03-16T07:30:52.287Z,6.96
2019-03-16T07:31:52.243Z,6.97
2019-03-16T07:32:52.315Z,6.94
2019-03-16T07:33:52.247Z,7.05
2019-03-16T07:34:52.320Z,7.07
2019-03-16T07:35:52.201Z,7.09
2019-03-16T07:36:52.234Z,7.16
2019-03-16T07:37:52.190Z,7.11
2019-03-16T07:38:52.282Z,7.09
2019-03-16T07:39:52.142Z,7.07
2019-03-16T07:40:52.263Z,7.16
2019-03-16T07:41:52.123Z,7.18
2019-03-16T07:42:52.172Z,7.15
2019-03-16T07:43:52.096Z,7.21
2019-03-16T07:44:52.237Z,7.21
2019-03-16T07:45:52.075Z,7.23
2019-03-16T07:46:52.201Z,7.24
2019-03-16T07:47:52.064Z,7.18
2019-03-16T07:48:52.112Z,7.32
2019-03-16T07:49:52.073Z,7.29
2019-03-16T07:50:52.140Z,7.24
2019-03-16T07:51:52.055Z,7.19
2019-03-16T07:52:52.043Z,7.18
2019-03-16T07:53:52.026Z,7.21
2019-03-16T07:54:52.098Z,7.29
2019-03-16T07:55:52.024Z,7.32
2019-03-16T07:56:52.068Z,7.36
2019-03-16T07:57:51.944Z,7.29
2019-03-16T07:58:51.982Z,7.30
2019-03-16T07:59:51.955Z,7.32
2019-03-16T08:00:51.989Z,7.36
2019-03-16T08:01:51.901Z,7.41
2019-03-16T08:02:52.002Z,7.41
2019-03-16T08:03:51.871Z,7.37
2019-03-16T08:04:51.951Z,7.36
2019-03-16T08:05:51.902Z,7.32
2019-03-16T08:06:51.940Z,7.41
2019-03-16T08:07:51.821Z,7.36
2019-03-16T08:08:51.957Z,7.37
2019-03-16T08:09:51.802Z,7.39
2019-03-16T08:10:51.900Z,7.37
2019-03-16T08:11:51.774Z,7.39
2019-03-16T08:12:51.872Z,7.32
2019-03-16T08:13:51.759Z,7.37
2019-03-16T08:14:51.879Z,7.39
2019-03-16T08:15:51.794Z,7.45
2019-03-16T08:16:51.804Z,7.39
2019-03-16T08:17:51.726Z,7.45
2019-03-16T08:18:51.807Z,7.45
2019-03-16T08:19:51.705Z,7.47
2019-03-16T08:20:51.765Z,7.41
2019-03-16T08:21:51.671Z,7.45
2019-03-16T08:22:51.742Z,7.42
2019-03-16T08:23:53.826Z,7.47
2019-03-16T08:24:51.955Z,7.39
2019-03-16T08:25:51.655Z,7.45
2019-03-16T08:26:51.766Z,7.44
2019-03-16T08:27:54.583Z,7.42
2019-03-16T08:28:51.787Z,7.48
2019-03-16T08:29:51.582Z,7.50
2019-03-16T08:30:51.918Z,7.44
2019-03-16T08:31:51.583Z,7.51
2019-03-16T08:32:51.607Z,7.48
2019-03-16T08:33:51.548Z,7.52
2019-03-16T08:34:51.683Z,7.54
2019-03-16T08:35:51.526Z,7.55
2019-03-16T08:36:51.769Z,7.71
2019-03-16T08:37:51.512Z,7.69
2019-03-16T08:38:51.531Z,7.73
2019-03-16T08:39:51.465Z,7.76
2019-03-16T08:40:51.550Z,7.79
2019-03-16T08:41:51.465Z,7.85
2019-03-16T08:43:52.559Z,7.96
2019-03-16T08:44:51.476Z,8.00
2019-03-16T08:45:51.412Z,8.03
2019-03-16T08:46:51.530Z,8.02
2019-03-16T08:47:51.388Z,8.14
2019-03-16T08:48:51.394Z,8.18
2019-03-16T08:49:51.377Z,8.22
2019-03-16T08:51:52.498Z,8.31
2019-03-16T08:52:53.742Z,8.28
2019-03-16T08:53:51.309Z,8.28
2019-03-16T08:54:51.346Z,8.39
2019-03-16T08:55:51.288Z,8.31
2019-03-16T08:56:51.399Z,8.42
2019-03-16T08:57:51.313Z,8.40
2019-03-16T08:58:51.372Z,8.49
2019-03-16T08:59:51.255Z,8.58
2019-03-16T09:00:51.282Z,8.58
2019-03-16T09:01:51.222Z,8.60
2019-03-16T09:02:51.328Z,8.58
2019-03-16T09:03:51.204Z,8.68
2019-03-16T09:04:51.308Z,8.73
2019-03-16T09:05:51.303Z,8.67
2019-03-16T09:06:52.946Z,8.76
2019-03-16T09:07:51.318Z,8.75
2019-03-16T09:08:51.240Z,8.76
2019-03-16T09:09:51.134Z,8.85
2019-03-16T09:11:52.256Z,8.88
2019-03-16T09:12:55.210Z,8.93
2019-03-16T09:13:51.088Z,9.00
2019-03-16T09:14:51.192Z,9.10
2019-03-16T09:15:51.081Z,9.12
2019-03-16T09:16:51.188Z,9.23
2019-03-16T09:17:51.077Z,9.24
2019-03-16T09:18:51.147Z,9.34
2019-03-16T09:19:51.031Z,9.44
2019-03-16T09:20:51.110Z,9.58
2019-03-16T09:21:51.012Z,9.68
2019-03-16T09:22:51.046Z,9.89
2019-03-16T09:23:51.012Z,9.92
2019-03-16T09:24:51.090Z,10.01
2019-03-16T09:25:50.967Z,10.06
2019-03-16T09:26:51.044Z,10.04
2019-03-16T09:27:50.939Z,9.99
2019-03-16T09:28:59.632Z,10.01
2019-03-16T09:29:51.936Z,10.04
2019-03-16T09:30:50.968Z,9.99
2019-03-16T09:31:50.898Z,9.99
2019-03-16T09:32:50.995Z,10.06
2019-03-16T09:33:50.908Z,10.02
2019-03-16T09:34:50.939Z,10.13
2019-03-16T09:35:50.865Z,10.17
2019-03-16T09:36:50.915Z,10.24
2019-03-16T09:37:50.839Z,10.29
2019-03-16T09:38:50.963Z,10.31
2019-03-16T09:39:50.816Z,10.26
2019-03-16T09:40:50.842Z,10.31
2019-03-16T09:41:50.781Z,10.32
2019-03-16T09:42:50.855Z,10.28
2019-03-16T09:43:50.790Z,10.36
2019-03-16T09:44:50.903Z,10.47
2019-03-16T09:45:50.773Z,10.46
2019-03-16T09:46:50.782Z,10.58
2019-03-16T09:47:50.718Z,10.66
2019-03-16T09:48:50.815Z,10.68
2019-03-16T09:49:50.737Z,10.73
2019-03-16T09:50:50.822Z,10.78
2019-03-16T09:51:50.678Z,10.84
2019-03-16T09:52:50.728Z,10.73
2019-03-16T09:53:50.649Z,10.70
2019-03-16T09:54:50.738Z,10.72
2019-03-16T09:55:50.692Z,10.69
2019-03-16T09:57:00.617Z,10.72
2019-03-16T09:57:51.597Z,10.63
2019-03-16T09:58:50.672Z,10.51
2019-03-16T09:59:50.633Z,10.51
2019-03-16T10:00:50.684Z,10.47
2019-03-16T10:01:50.567Z,10.34
2019-03-16T10:02:50.701Z,10.34
2019-03-16T10:03:50.529Z,10.31
2019-03-16T10:04:50.609Z,10.20
2019-03-16T10:05:50.717Z,10.20
2019-03-16T10:06:50.615Z,10.16
2019-03-16T10:07:50.497Z,10.11
2019-03-16T10:08:50.534Z,10.20
2019-03-16T10:09:50.469Z,10.16
2019-03-16T10:10:50.585Z,10.16
2019-03-16T10:11:50.458Z,10.14
2019-03-16T10:12:50.560Z,10.24
2019-03-16T10:13:50.439Z,10.17
2019-03-16T10:14:50.468Z,10.24
2019-03-16T10:15:50.436Z,10.22
2019-03-16T10:16:50.806Z,10.09
2019-03-16T10:17:50.406Z,10.18
2019-03-16T10:18:52.986Z,10.10
2019-03-16T10:19:50.419Z,10.22
2019-03-16T10:20:50.838Z,10.13
2019-03-16T10:21:50.377Z,10.10
2019-03-16T10:22:51.074Z,10.17
2019-03-16T10:23:50.323Z,10.20
2019-03-16T10:24:51.170Z,10.13
2019-03-16T10:25:50.332Z,10.18
2019-03-16T10:26:52.106Z,10.20
2019-03-16T10:27:50.275Z,10.13
2019-03-16T10:29:51.413Z,10.13
2019-03-16T10:31:51.406Z,10.09
2019-03-16T10:33:51.264Z,10.07
2019-03-16T10:34:52.141Z,10.16
2019-03-16T10:35:50.201Z,10.11
2019-03-16T10:36:52.806Z,10.09
2019-03-16T10:37:50.204Z,9.99
2019-03-16T10:38:52.617Z,10.04
2019-03-16T10:39:50.155Z,10.01
2019-03-16T10:41:51.267Z,10.10
2019-03-16T10:43:51.263Z,10.01
2019-03-16T10:45:51.550Z,10.13
2019-03-16T10:46:51.242Z,10.06
2019-03-16T10:47:50.072Z,10.07
2019-03-16T10:48:50.091Z,10.10
2019-03-16T10:49:50.070Z,10.06
2019-03-16T10:50:52.458Z,10.20
2019-03-16T10:51:50.038Z,10.16
2019-03-16T10:53:51.152Z,10.17
2019-03-16T10:55:51.102Z,10.24
2019-03-16T10:56:53.960Z,10.20
2019-03-16T10:57:49.954Z,10.22
2019-03-16T10:58:56.919Z,10.24
2019-03-16T10:59:49.926Z,10.18
2019-03-16T11:01:49.910Z,10.16
2019-03-16T11:02:52.032Z,10.29
2019-03-16T11:03:49.905Z,10.17
2019-03-16T11:04:49.999Z,10.16
2019-03-16T11:05:49.870Z,10.20
2019-03-16T11:07:51.042Z,10.20
2019-03-16T11:08:50.440Z,10.13
2019-03-16T11:09:49.825Z,10.04
2019-03-16T11:11:50.942Z,10.10
2019-03-16T11:13:50.935Z,10.11
2019-03-16T11:14:49.863Z,10.20
2019-03-16T11:15:49.750Z,10.22
2019-03-16T11:16:49.850Z,10.22
2019-03-16T11:17:49.793Z,10.16
2019-03-16T11:18:49.809Z,10.16
2019-03-16T11:19:49.739Z,10.22
2019-03-16T11:20:49.821Z,10.14
2019-03-16T11:21:50.818Z,10.18
2019-03-16T11:22:49.766Z,10.22
2019-03-16T11:23:49.687Z,10.29
2019-03-16T11:24:49.718Z,10.35
2019-03-16T11:25:49.640Z,10.34
2019-03-16T11:26:49.741Z,10.36
2019-03-16T11:27:49.606Z,10.43
2019-03-16T11:28:49.688Z,10.46
2019-03-16T11:29:49.597Z,10.36
2019-03-16T11:30:49.663Z,10.38
2019-03-16T11:31:49.560Z,10.42
2019-03-16T11:32:49.711Z,10.46
2019-03-16T11:33:49.651Z,10.55
2019-03-16T11:34:49.620Z,10.62
2019-03-16T11:35:49.519Z,10.83
2019-03-16T11:36:49.701Z,10.99
2019-03-16T11:37:49.497Z,11.21
2019-03-16T11:38:49.646Z,11.19
2019-03-16T11:39:49.479Z,11.27
2019-03-16T11:40:49.523Z,11.16
2019-03-16T11:41:49.457Z,11.16
2019-03-16T11:42:49.944Z,11.19
2019-03-16T11:43:49.433Z,11.11
2019-03-16T11:44:49.501Z,11.12
2019-03-16T11:45:49.411Z,11.11
2019-03-16T11:46:49.474Z,11.12
2019-03-16T11:47:49.398Z,11.12
2019-03-16T11:48:49.480Z,11.19
2019-03-16T11:49:49.399Z,11.16
2019-03-16T11:50:49.386Z,11.13
2019-03-16T11:51:49.350Z,11.31
2019-03-16T11:52:49.403Z,11.36
2019-03-16T11:53:49.323Z,11.31
2019-03-16T11:54:49.460Z,11.24
2019-03-16T11:55:49.320Z,11.24
2019-03-16T11:56:49.334Z,11.12
2019-03-16T11:57:49.291Z,11.23
2019-03-16T11:58:49.349Z,11.13
2019-03-16T11:59:49.285Z,11.24
2019-03-16T12:00:49.354Z,11.20
2019-03-16T12:01:49.246Z,11.20
2019-03-16T12:02:49.272Z,11.17
2019-03-16T12:03:49.219Z,11.17
2019-03-16T12:04:49.340Z,11.12
2019-03-16T12:05:49.214Z,11.12
2019-03-16T12:06:49.293Z,11.12
2019-03-16T12:07:49.194Z,11.13
2019-03-16T12:08:49.206Z,11.26
2019-03-16T12:09:49.172Z,11.24
2019-03-16T12:10:49.228Z,11.23
2019-03-16T12:11:49.123Z,11.12
2019-03-16T12:12:49.248Z,11.30
2019-03-16T12:13:49.094Z,11.20
2019-03-16T12:14:49.288Z,11.24
2019-03-16T12:15:49.090Z,11.24
2019-03-16T12:16:49.166Z,11.26
2019-03-16T12:17:49.051Z,11.24
2019-03-16T12:18:49.078Z,11.27
2019-03-16T12:19:49.044Z,11.19
2019-03-16T12:20:49.134Z,11.21
2019-03-16T12:21:49.009Z,11.27
2019-03-16T12:22:49.212Z,11.21
2019-03-16T12:23:49.042Z,11.23
2019-03-16T12:24:49.027Z,11.12
2019-03-16T12:25:48.984Z,11.09
2019-03-16T12:26:49.029Z,11.19
2019-03-16T12:27:48.985Z,11.19
2019-03-16T12:28:49.048Z,11.12
2019-03-16T12:29:48.947Z,11.17
2019-03-16T12:30:48.993Z,11.08
2019-03-16T12:31:48.904Z,11.12
2019-03-16T12:32:48.967Z,11.17
2019-03-16T12:33:48.873Z,11.12
2019-03-16T12:34:48.984Z,11.12
2019-03-16T12:35:48.883Z,11.03
2019-03-16T12:36:48.896Z,11.08
2019-03-16T12:37:48.837Z,11.09
2019-03-16T12:38:48.904Z,11.03
2019-03-16T12:39:48.820Z,11.11
2019-03-16T12:40:48.952Z,11.02
2019-03-16T12:41:48.788Z,11.03
2019-03-16T12:42:48.830Z,10.99
2019-03-16T12:43:48.790Z,10.98
2019-03-16T12:44:48.845Z,11.06
2019-03-16T12:45:48.782Z,10.94
2019-03-16T12:46:48.859Z,11.03
2019-03-16T12:47:48.737Z,10.93
2019-03-16T12:48:48.782Z,10.99
2019-03-16T12:49:48.694Z,11.03
2019-03-16T12:50:48.817Z,11.03
2019-03-16T12:51:48.684Z,11.03
2019-03-16T12:52:48.710Z,11.06
2019-03-16T12:53:48.656Z,11.03
2019-03-16T12:54:48.733Z,11.08
2019-03-16T12:55:48.666Z,11.06
2019-03-16T12:56:48.731Z,11.06
2019-03-16T12:57:48.644Z,11.09
2019-03-16T12:58:48.657Z,11.13
2019-03-16T12:59:48.603Z,11.12
2019-03-16T13:00:48.678Z,11.16
2019-03-16T13:01:48.595Z,11.17
2019-03-16T13:02:48.667Z,11.28
2019-03-16T13:03:50.368Z,11.21
2019-03-16T13:04:48.579Z,11.26
2019-03-16T13:05:48.520Z,11.12
2019-03-16T13:06:48.648Z,11.17
2019-03-16T13:07:48.576Z,11.08
2019-03-16T13:08:48.607Z,11.09
2019-03-16T13:09:48.477Z,11.16
2019-03-16T13:10:48.515Z,11.09
2019-03-16T13:11:48.490Z,11.12
2019-03-16T13:12:48.549Z,11.16
2019-03-16T13:13:48.428Z,11.17
2019-03-16T13:14:48.559Z,11.26
2019-03-16T13:15:48.417Z,11.12
2019-03-16T13:16:48.596Z,11.21
2019-03-16T13:17:48.383Z,11.21
2019-03-16T13:19:49.521Z,11.20
2019-03-16T13:20:48.381Z,11.17
2019-03-16T13:21:48.346Z,11.16
2019-03-16T13:22:48.443Z,11.16
2019-03-16T13:23:48.325Z,11.19
2019-03-16T13:24:48.412Z,11.12
2019-03-16T13:25:48.309Z,11.09
2019-03-16T13:26:48.318Z,11.17
2019-03-16T13:27:48.328Z,11.09
2019-03-16T13:28:48.336Z,11.05